sensor_id;sensor_type;location;lat;lon;timestamp;P1;durP1;ratioP1;P2;durP2;ratioP2
11524;SDS011;5819;49.648;8.330;2023-05-15T00:01:45;3.65;;;3.33;;
11524;SDS011;5819;49.648;8.330;2023-05-15T00:04:13;4.15;;;3.50;;
11524;SDS011;5819;49.648;8.330;2023-05-15T00:06:41;3.55;;;3.25;;
11524;SDS011;5819;49.648;8.330;2023-05-15T00:09:09;3.40;;;3.10;;
11524;SDS011;5819;49.648;8.330;2023-05-15T00:11:37;3.53;;;3.22;;
11524;SDS011;5819;49.648;8.330;2023-05-15T00:14:05;3.53;;;3.20;;
11524;SDS011;5819;49.648;8.330;2023-05-15T00:16:33;3.38;;;3.05;;
11524;SDS011;5819;49.648;8.330;2023-05-15T00:19:03;3.30;;;3.00;;
11524;SDS011;5819;49.648;8.330;2023-05-15T00:21:31;3.22;;;2.92;;
11524;SDS011;5819;49.648;8.330;2023-05-15T00:23:59;4.15;;;3.28;;
11524;SDS011;5819;49.648;8.330;2023-05-15T00:26:27;3.53;;;3.22;;
11524;SDS011;5819;49.648;8.330;2023-05-15T00:28:56;3.35;;;3.05;;
11524;SDS011;5819;49.648;8.330;2023-05-15T00:31:24;4.60;;;3.65;;
11524;SDS011;5819;49.648;8.330;2023-05-15T00:33:52;4.80;;;3.55;;
11524;SDS011;5819;49.648;8.330;2023-05-15T00:36:21;3.33;;;3.13;;
11524;SDS011;5819;49.648;8.330;2023-05-15T00:38:50;3.75;;;3.35;;
11524;SDS011;5819;49.648;8.330;2023-05-15T00:41:19;4.82;;;3.25;;
11524;SDS011;5819;49.648;8.330;2023-05-15T00:43:49;4.28;;;3.70;;
11524;SDS011;5819;49.648;8.330;2023-05-15T00:46:19;3.75;;;3.45;;
11524;SDS011;5819;49.648;8.330;2023-05-15T00:48:49;3.53;;;3.22;;
11524;SDS011;5819;49.648;8.330;2023-05-15T00:51:18;3.75;;;3.42;;
11524;SDS011;5819;49.648;8.330;2023-05-15T00:53:51;5.93;;;3.90;;
11524;SDS011;5819;49.648;8.330;2023-05-15T00:56:21;3.78;;;3.47;;
11524;SDS011;5819;49.648;8.330;2023-05-15T00:58:51;4.03;;;3.65;;
11524;SDS011;5819;49.648;8.330;2023-05-15T01:01:24;4.13;;;3.72;;
11524;SDS011;5819;49.648;8.330;2023-05-15T01:03:54;8.55;;;4.40;;
11524;SDS011;5819;49.648;8.330;2023-05-15T01:06:25;4.45;;;4.05;;
11524;SDS011;5819;49.648;8.330;2023-05-15T01:08:55;4.07;;;3.33;;
11524;SDS011;5819;49.648;8.330;2023-05-15T01:11:27;4.25;;;3.85;;
11524;SDS011;5819;49.648;8.330;2023-05-15T01:14:02;4.15;;;3.80;;
11524;SDS011;5819;49.648;8.330;2023-05-15T01:16:31;5.43;;;4.40;;
11524;SDS011;5819;49.648;8.330;2023-05-15T01:19:00;4.25;;;3.78;;
11524;SDS011;5819;49.648;8.330;2023-05-15T01:24:41;4.47;;;3.58;;
11524;SDS011;5819;49.648;8.330;2023-05-15T01:27:31;4.13;;;3.50;;
11524;SDS011;5819;49.648;8.330;2023-05-15T01:30:03;4.18;;;3.78;;
11524;SDS011;5819;49.648;8.330;2023-05-15T01:32:40;4.70;;;3.58;;
11524;SDS011;5819;49.648;8.330;2023-05-15T01:35:13;3.80;;;3.50;;
11524;SDS011;5819;49.648;8.330;2023-05-15T01:37:48;3.85;;;3.35;;
11524;SDS011;5819;49.648;8.330;2023-05-15T01:40:33;3.90;;;3.50;;
11524;SDS011;5819;49.648;8.330;2023-05-15T01:43:05;3.88;;;3.58;;
11524;SDS011;5819;49.648;8.330;2023-05-15T01:45:35;4.47;;;3.60;;
11524;SDS011;5819;49.648;8.330;2023-05-15T01:48:04;4.03;;;3.42;;
11524;SDS011;5819;49.648;8.330;2023-05-15T01:50:34;4.10;;;3.70;;
11524;SDS011;5819;49.648;8.330;2023-05-15T01:53:04;3.78;;;3.38;;
11524;SDS011;5819;49.648;8.330;2023-05-15T01:55:35;4.40;;;3.35;;
11524;SDS011;5819;49.648;8.330;2023-05-15T01:58:06;3.55;;;3.25;;
11524;SDS011;5819;49.648;8.330;2023-05-15T02:00:35;4.10;;;3.63;;
11524;SDS011;5819;49.648;8.330;2023-05-15T02:03:23;4.00;;;2.95;;
11524;SDS011;5819;49.648;8.330;2023-05-15T02:05:52;3.92;;;3.63;;
11524;SDS011;5819;49.648;8.330;2023-05-15T02:08:21;3.72;;;3.40;;
11524;SDS011;5819;49.648;8.330;2023-05-15T02:10:51;3.80;;;3.50;;
11524;SDS011;5819;49.648;8.330;2023-05-15T02:13:20;4.00;;;3.70;;
11524;SDS011;5819;49.648;8.330;2023-05-15T02:15:52;5.45;;;3.40;;
11524;SDS011;5819;49.648;8.330;2023-05-15T02:18:20;3.53;;;3.22;;
11524;SDS011;5819;49.648;8.330;2023-05-15T02:20:48;4.05;;;3.03;;
11524;SDS011;5819;49.648;8.330;2023-05-15T02:23:16;3.83;;;3.42;;
11524;SDS011;5819;49.648;8.330;2023-05-15T02:25:49;4.13;;;3.72;;
11524;SDS011;5819;49.648;8.330;2023-05-15T02:28:29;3.45;;;3.15;;
11524;SDS011;5819;49.648;8.330;2023-05-15T02:31:04;5.10;;;3.63;;
11524;SDS011;5819;49.648;8.330;2023-05-15T02:33:41;4.88;;;3.70;;
11524;SDS011;5819;49.648;8.330;2023-05-15T02:36:18;5.43;;;3.38;;
11524;SDS011;5819;49.648;8.330;2023-05-15T02:38:50;3.60;;;3.30;;
11524;SDS011;5819;49.648;8.330;2023-05-15T02:41:19;5.38;;;3.47;;
11524;SDS011;5819;49.648;8.330;2023-05-15T02:43:51;3.70;;;3.40;;
11524;SDS011;5819;49.648;8.330;2023-05-15T02:46:20;3.47;;;3.17;;
11524;SDS011;5819;49.648;8.330;2023-05-15T02:48:51;3.70;;;3.40;;
11524;SDS011;5819;49.648;8.330;2023-05-15T02:51:20;5.13;;;3.47;;
11524;SDS011;5819;49.648;8.330;2023-05-15T02:53:48;5.15;;;3.90;;
11524;SDS011;5819;49.648;8.330;2023-05-15T02:56:16;6.95;;;4.00;;
11524;SDS011;5819;49.648;8.330;2023-05-15T02:58:44;5.28;;;4.03;;
11524;SDS011;5819;49.648;8.330;2023-05-15T03:01:14;4.70;;;4.30;;
11524;SDS011;5819;49.648;8.330;2023-05-15T03:03:42;4.38;;;3.80;;
11524;SDS011;5819;49.648;8.330;2023-05-15T03:06:10;5.45;;;4.07;;
11524;SDS011;5819;49.648;8.330;2023-05-15T03:08:37;4.50;;;3.78;;
11524;SDS011;5819;49.648;8.330;2023-05-15T03:11:05;4.15;;;3.20;;
11524;SDS011;5819;49.648;8.330;2023-05-15T03:13:33;3.88;;;3.47;;
11524;SDS011;5819;49.648;8.330;2023-05-15T03:16:01;3.60;;;3.15;;
11524;SDS011;5819;49.648;8.330;2023-05-15T03:18:30;3.75;;;3.35;;
11524;SDS011;5819;49.648;8.330;2023-05-15T03:20:58;5.30;;;3.70;;
11524;SDS011;5819;49.648;8.330;2023-05-15T03:23:25;3.78;;;3.47;;
11524;SDS011;5819;49.648;8.330;2023-05-15T03:25:54;6.72;;;3.80;;
11524;SDS011;5819;49.648;8.330;2023-05-15T03:28:22;3.30;;;3.00;;
11524;SDS011;5819;49.648;8.330;2023-05-15T03:30:50;4.70;;;3.13;;
11524;SDS011;5819;49.648;8.330;2023-05-15T03:33:18;3.75;;;3.00;;
11524;SDS011;5819;49.648;8.330;2023-05-15T03:35:47;3.95;;;3.28;;
11524;SDS011;5819;49.648;8.330;2023-05-15T03:38:16;3.55;;;3.25;;
11524;SDS011;5819;49.648;8.330;2023-05-15T03:40:44;4.60;;;3.10;;
11524;SDS011;5819;49.648;8.330;2023-05-15T03:43:15;3.80;;;2.92;;
11524;SDS011;5819;49.648;8.330;2023-05-15T03:45:43;3.63;;;3.30;;
11524;SDS011;5819;49.648;8.330;2023-05-15T03:48:11;3.38;;;3.08;;
11524;SDS011;5819;49.648;8.330;2023-05-15T03:50:39;3.13;;;2.83;;
11524;SDS011;5819;49.648;8.330;2023-05-15T03:53:09;3.45;;;3.15;;
11524;SDS011;5819;49.648;8.330;2023-05-15T03:55:37;3.80;;;3.33;;
11524;SDS011;5819;49.648;8.330;2023-05-15T03:58:04;5.07;;;3.10;;
11524;SDS011;5819;49.648;8.330;2023-05-15T04:00:32;3.80;;;3.50;;
11524;SDS011;5819;49.648;8.330;2023-05-15T04:03:00;5.20;;;4.55;;
11524;SDS011;5819;49.648;8.330;2023-05-15T04:05:28;4.00;;;3.30;;
11524;SDS011;5819;49.648;8.330;2023-05-15T04:07:56;3.58;;;3.28;;
11524;SDS011;5819;49.648;8.330;2023-05-15T04:10:25;3.72;;;2.60;;
11524;SDS011;5819;49.648;8.330;2023-05-15T04:12:53;3.40;;;3.10;;
11524;SDS011;5819;49.648;8.330;2023-05-15T04:15:21;3.53;;;3.22;;
11524;SDS011;5819;49.648;8.330;2023-05-15T04:17:52;3.58;;;3.28;;
11524;SDS011;5819;49.648;8.330;2023-05-15T04:20:21;3.63;;;3.30;;
11524;SDS011;5819;49.648;8.330;2023-05-15T04:22:49;3.75;;;3.10;;
11524;SDS011;5819;49.648;8.330;2023-05-15T04:25:19;3.58;;;3.28;;
11524;SDS011;5819;49.648;8.330;2023-05-15T04:27:49;6.13;;;3.55;;
11524;SDS011;5819;49.648;8.330;2023-05-15T04:30:17;3.60;;;3.30;;
11524;SDS011;5819;49.648;8.330;2023-05-15T04:32:44;3.35;;;3.05;;
11524;SDS011;5819;49.648;8.330;2023-05-15T04:35:12;4.00;;;3.70;;
11524;SDS011;5819;49.648;8.330;2023-05-15T04:37:41;4.00;;;3.25;;
11524;SDS011;5819;49.648;8.330;2023-05-15T04:40:11;5.22;;;3.40;;
11524;SDS011;5819;49.648;8.330;2023-05-15T04:42:41;3.72;;;3.42;;
11524;SDS011;5819;49.648;8.330;2023-05-15T04:45:11;4.90;;;4.32;;
11524;SDS011;5819;49.648;8.330;2023-05-15T04:47:39;4.28;;;3.88;;
11524;SDS011;5819;49.648;8.330;2023-05-15T04:50:07;5.85;;;4.00;;
11524;SDS011;5819;49.648;8.330;2023-05-15T04:52:36;3.60;;;3.30;;
11524;SDS011;5819;49.648;8.330;2023-05-15T04:55:04;4.30;;;3.90;;
11524;SDS011;5819;49.648;8.330;2023-05-15T04:57:33;5.93;;;3.80;;
11524;SDS011;5819;49.648;8.330;2023-05-15T05:00:02;3.88;;;3.40;;
11524;SDS011;5819;49.648;8.330;2023-05-15T05:02:36;4.20;;;3.88;;
11524;SDS011;5819;49.648;8.330;2023-05-15T05:05:05;7.20;;;3.88;;
11524;SDS011;5819;49.648;8.330;2023-05-15T05:07:34;8.93;;;4.15;;
11524;SDS011;5819;49.648;8.330;2023-05-15T05:10:02;4.93;;;4.40;;
11524;SDS011;5819;49.648;8.330;2023-05-15T05:12:31;4.63;;;4.20;;
11524;SDS011;5819;49.648;8.330;2023-05-15T05:14:58;4.60;;;4.20;;
11524;SDS011;5819;49.648;8.330;2023-05-15T05:17:26;6.38;;;4.85;;
11524;SDS011;5819;49.648;8.330;2023-05-15T05:19:55;5.78;;;4.30;;
11524;SDS011;5819;49.648;8.330;2023-05-15T05:22:23;5.50;;;4.07;;
11524;SDS011;5819;49.648;8.330;2023-05-15T05:24:51;4.85;;;4.10;;
11524;SDS011;5819;49.648;8.330;2023-05-15T05:27:19;5.82;;;4.10;;
11524;SDS011;5819;49.648;8.330;2023-05-15T05:29:47;4.85;;;4.35;;
11524;SDS011;5819;49.648;8.330;2023-05-15T05:32:16;6.25;;;5.00;;
11524;SDS011;5819;49.648;8.330;2023-05-15T05:34:44;5.47;;;4.80;;
11524;SDS011;5819;49.648;8.330;2023-05-15T05:37:13;5.82;;;4.53;;
11524;SDS011;5819;49.648;8.330;2023-05-15T05:39:41;4.80;;;4.40;;
11524;SDS011;5819;49.648;8.330;2023-05-15T05:42:09;4.65;;;4.25;;
11524;SDS011;5819;49.648;8.330;2023-05-15T05:44:37;4.30;;;3.97;;
11524;SDS011;5819;49.648;8.330;2023-05-15T05:47:05;4.53;;;4.13;;
11524;SDS011;5819;49.648;8.330;2023-05-15T05:49:33;4.78;;;3.88;;
11524;SDS011;5819;49.648;8.330;2023-05-15T05:52:05;4.13;;;3.75;;
11524;SDS011;5819;49.648;8.330;2023-05-15T05:54:36;5.05;;;4.40;;
11524;SDS011;5819;49.648;8.330;2023-05-15T05:57:04;5.32;;;4.47;;
11524;SDS011;5819;49.648;8.330;2023-05-15T05:59:34;4.47;;;4.07;;
11524;SDS011;5819;49.648;8.330;2023-05-15T06:02:02;4.88;;;4.43;;
11524;SDS011;5819;49.648;8.330;2023-05-15T06:04:31;4.63;;;4.13;;
11524;SDS011;5819;49.648;8.330;2023-05-15T06:06:59;4.97;;;4.10;;
11524;SDS011;5819;49.648;8.330;2023-05-15T06:09:28;5.45;;;4.25;;
11524;SDS011;5819;49.648;8.330;2023-05-15T06:11:58;5.65;;;4.72;;
11524;SDS011;5819;49.648;8.330;2023-05-15T06:14:29;4.95;;;4.22;;
11524;SDS011;5819;49.648;8.330;2023-05-15T06:16:57;5.10;;;4.60;;
11524;SDS011;5819;49.648;8.330;2023-05-15T06:19:25;5.72;;;5.13;;
11524;SDS011;5819;49.648;8.330;2023-05-15T06:21:53;7.50;;;5.22;;
11524;SDS011;5819;49.648;8.330;2023-05-15T06:24:21;6.45;;;5.00;;
11524;SDS011;5819;49.648;8.330;2023-05-15T06:26:49;5.70;;;5.20;;
11524;SDS011;5819;49.648;8.330;2023-05-15T06:29:19;5.97;;;5.38;;
11524;SDS011;5819;49.648;8.330;2023-05-15T06:31:50;6.63;;;5.93;;
11524;SDS011;5819;49.648;8.330;2023-05-15T06:34:21;8.82;;;7.03;;
11524;SDS011;5819;49.648;8.330;2023-05-15T06:36:49;9.70;;;7.40;;
11524;SDS011;5819;49.648;8.330;2023-05-15T06:39:24;8.65;;;7.20;;
11524;SDS011;5819;49.648;8.330;2023-05-15T06:41:54;7.53;;;6.82;;
11524;SDS011;5819;49.648;8.330;2023-05-15T06:44:30;9.20;;;7.82;;
11524;SDS011;5819;49.648;8.330;2023-05-15T06:46:58;9.70;;;8.70;;
11524;SDS011;5819;49.648;8.330;2023-05-15T06:49:26;12.40;;;9.30;;
11524;SDS011;5819;49.648;8.330;2023-05-15T06:51:54;12.32;;;9.35;;
11524;SDS011;5819;49.648;8.330;2023-05-15T06:54:21;9.55;;;8.65;;
11524;SDS011;5819;49.648;8.330;2023-05-15T06:56:52;9.90;;;9.00;;
11524;SDS011;5819;49.648;8.330;2023-05-15T06:59:21;14.07;;;9.82;;
11524;SDS011;5819;49.648;8.330;2023-05-15T07:01:50;13.25;;;10.20;;
11524;SDS011;5819;49.648;8.330;2023-05-15T07:04:18;13.13;;;11.32;;
11524;SDS011;5819;49.648;8.330;2023-05-15T07:06:46;14.38;;;12.88;;
11524;SDS011;5819;49.648;8.330;2023-05-15T07:09:14;18.15;;;14.55;;
11524;SDS011;5819;49.648;8.330;2023-05-15T07:11:42;17.55;;;13.82;;
11524;SDS011;5819;49.648;8.330;2023-05-15T07:14:10;18.60;;;14.32;;
11524;SDS011;5819;49.648;8.330;2023-05-15T07:16:38;16.80;;;15.00;;
11524;SDS011;5819;49.648;8.330;2023-05-15T07:19:08;17.92;;;14.57;;
11524;SDS011;5819;49.648;8.330;2023-05-15T07:21:37;19.67;;;14.85;;
11524;SDS011;5819;49.648;8.330;2023-05-15T07:24:05;15.27;;;13.68;;
11524;SDS011;5819;49.648;8.330;2023-05-15T07:26:33;16.50;;;14.60;;
11524;SDS011;5819;49.648;8.330;2023-05-15T07:29:15;19.80;;;14.77;;
11524;SDS011;5819;49.648;8.330;2023-05-15T07:31:43;15.52;;;13.82;;
11524;SDS011;5819;49.648;8.330;2023-05-15T07:34:12;17.67;;;13.80;;
11524;SDS011;5819;49.648;8.330;2023-05-15T07:36:40;16.33;;;14.25;;
11524;SDS011;5819;49.648;8.330;2023-05-15T07:39:08;15.35;;;12.93;;
11524;SDS011;5819;49.648;8.330;2023-05-15T07:41:36;14.90;;;13.23;;
11524;SDS011;5819;49.648;8.330;2023-05-15T07:44:04;19.25;;;13.82;;
11524;SDS011;5819;49.648;8.330;2023-05-15T07:46:32;18.30;;;15.82;;
11524;SDS011;5819;49.648;8.330;2023-05-15T07:49:01;19.33;;;16.35;;
11524;SDS011;5819;49.648;8.330;2023-05-15T07:51:30;18.73;;;16.30;;
11524;SDS011;5819;49.648;8.330;2023-05-15T07:53:58;23.98;;;17.30;;
11524;SDS011;5819;49.648;8.330;2023-05-15T07:56:26;20.08;;;17.08;;
11524;SDS011;5819;49.648;8.330;2023-05-15T07:58:54;17.33;;;14.70;;
11524;SDS011;5819;49.648;8.330;2023-05-15T08:01:22;21.83;;;18.08;;
11524;SDS011;5819;49.648;8.330;2023-05-15T08:03:50;25.27;;;18.80;;
11524;SDS011;5819;49.648;8.330;2023-05-15T08:06:18;24.52;;;19.70;;
11524;SDS011;5819;49.648;8.330;2023-05-15T08:08:47;25.60;;;19.88;;
11524;SDS011;5819;49.648;8.330;2023-05-15T08:11:15;25.40;;;20.27;;
11524;SDS011;5819;49.648;8.330;2023-05-15T08:13:43;26.20;;;21.45;;
11524;SDS011;5819;49.648;8.330;2023-05-15T08:16:11;28.30;;;21.35;;
11524;SDS011;5819;49.648;8.330;2023-05-15T08:18:39;26.70;;;21.27;;
11524;SDS011;5819;49.648;8.330;2023-05-15T08:21:06;28.40;;;22.77;;
11524;SDS011;5819;49.648;8.330;2023-05-15T08:23:34;27.88;;;22.38;;
11524;SDS011;5819;49.648;8.330;2023-05-15T08:26:04;28.23;;;21.70;;
11524;SDS011;5819;49.648;8.330;2023-05-15T08:28:32;26.45;;;22.27;;
11524;SDS011;5819;49.648;8.330;2023-05-15T08:31:00;28.10;;;23.30;;
11524;SDS011;5819;49.648;8.330;2023-05-15T08:33:28;28.77;;;23.75;;
11524;SDS011;5819;49.648;8.330;2023-05-15T08:35:56;29.20;;;24.48;;
11524;SDS011;5819;49.648;8.330;2023-05-15T08:38:25;33.50;;;25.30;;
11524;SDS011;5819;49.648;8.330;2023-05-15T08:40:52;33.30;;;27.02;;
11524;SDS011;5819;49.648;8.330;2023-05-15T08:43:25;34.38;;;27.20;;
11524;SDS011;5819;49.648;8.330;2023-05-15T08:45:56;30.80;;;25.40;;
11524;SDS011;5819;49.648;8.330;2023-05-15T08:48:25;36.42;;;26.23;;
11524;SDS011;5819;49.648;8.330;2023-05-15T08:50:56;29.45;;;24.05;;
11524;SDS011;5819;49.648;8.330;2023-05-15T08:53:27;29.65;;;24.05;;
11524;SDS011;5819;49.648;8.330;2023-05-15T08:55:55;29.40;;;23.95;;
11524;SDS011;5819;49.648;8.330;2023-05-15T08:58:24;25.27;;;20.08;;
11524;SDS011;5819;49.648;8.330;2023-05-15T09:00:59;23.40;;;19.98;;
11524;SDS011;5819;49.648;8.330;2023-05-15T09:03:27;28.77;;;22.08;;
11524;SDS011;5819;49.648;8.330;2023-05-15T09:05:55;27.25;;;20.25;;
11524;SDS011;5819;49.648;8.330;2023-05-15T09:08:24;20.60;;;17.42;;
11524;SDS011;5819;49.648;8.330;2023-05-15T09:10:56;21.80;;;18.77;;
11524;SDS011;5819;49.648;8.330;2023-05-15T09:13:27;27.20;;;21.00;;
11524;SDS011;5819;49.648;8.330;2023-05-15T09:15:56;24.33;;;20.65;;
11524;SDS011;5819;49.648;8.330;2023-05-15T09:18:23;24.00;;;19.88;;
11524;SDS011;5819;49.648;8.330;2023-05-15T09:20:52;24.85;;;20.80;;
11524;SDS011;5819;49.648;8.330;2023-05-15T09:23:22;24.25;;;20.77;;
11524;SDS011;5819;49.648;8.330;2023-05-15T09:25:51;25.92;;;22.33;;
11524;SDS011;5819;49.648;8.330;2023-05-15T09:28:25;29.75;;;21.77;;
11524;SDS011;5819;49.648;8.330;2023-05-15T09:30:57;27.95;;;22.90;;
11524;SDS011;5819;49.648;8.330;2023-05-15T09:33:27;25.98;;;21.27;;
11524;SDS011;5819;49.648;8.330;2023-05-15T09:35:56;24.23;;;21.25;;
11524;SDS011;5819;49.648;8.330;2023-05-15T09:38:25;24.23;;;18.50;;
11524;SDS011;5819;49.648;8.330;2023-05-15T09:41:02;21.25;;;17.77;;
11524;SDS011;5819;49.648;8.330;2023-05-15T09:43:36;20.35;;;16.35;;
11524;SDS011;5819;49.648;8.330;2023-05-15T09:46:05;14.55;;;12.52;;
11524;SDS011;5819;49.648;8.330;2023-05-15T09:48:38;15.13;;;13.60;;
11524;SDS011;5819;49.648;8.330;2023-05-15T09:51:06;15.68;;;13.90;;
11524;SDS011;5819;49.648;8.330;2023-05-15T09:53:41;20.77;;;17.75;;
11524;SDS011;5819;49.648;8.330;2023-05-15T09:56:09;19.88;;;16.85;;
11524;SDS011;5819;49.648;8.330;2023-05-15T09:58:40;17.00;;;14.75;;
11524;SDS011;5819;49.648;8.330;2023-05-15T10:01:19;22.83;;;17.23;;
11524;SDS011;5819;49.648;8.330;2023-05-15T10:03:55;19.67;;;16.73;;
11524;SDS011;5819;49.648;8.330;2023-05-15T10:06:24;16.70;;;14.90;;
11524;SDS011;5819;49.648;8.330;2023-05-15T10:08:53;17.20;;;15.45;;
11524;SDS011;5819;49.648;8.330;2023-05-15T10:11:21;14.30;;;12.80;;
11524;SDS011;5819;49.648;8.330;2023-05-15T10:13:51;14.95;;;11.90;;
11524;SDS011;5819;49.648;8.330;2023-05-15T10:16:20;15.80;;;12.45;;
11524;SDS011;5819;49.648;8.330;2023-05-15T10:18:49;14.57;;;12.98;;
11524;SDS011;5819;49.648;8.330;2023-05-15T10:21:18;17.42;;;14.70;;
11524;SDS011;5819;49.648;8.330;2023-05-15T10:23:49;16.58;;;14.35;;
11524;SDS011;5819;49.648;8.330;2023-05-15T10:26:19;15.55;;;13.95;;
11524;SDS011;5819;49.648;8.330;2023-05-15T10:28:51;15.30;;;13.80;;
11524;SDS011;5819;49.648;8.330;2023-05-15T10:31:20;15.05;;;12.90;;
11524;SDS011;5819;49.648;8.330;2023-05-15T10:33:50;15.10;;;13.52;;
11524;SDS011;5819;49.648;8.330;2023-05-15T10:36:19;16.48;;;14.43;;
11524;SDS011;5819;49.648;8.330;2023-05-15T10:38:47;17.08;;;15.38;;
11524;SDS011;5819;49.648;8.330;2023-05-15T10:41:16;16.85;;;15.07;;
11524;SDS011;5819;49.648;8.330;2023-05-15T10:43:48;16.25;;;14.05;;
11524;SDS011;5819;49.648;8.330;2023-05-15T10:46:17;15.85;;;14.15;;
11524;SDS011;5819;49.648;8.330;2023-05-15T10:48:46;14.90;;;12.07;;
11524;SDS011;5819;49.648;8.330;2023-05-15T10:51:14;13.43;;;11.82;;
11524;SDS011;5819;49.648;8.330;2023-05-15T10:53:43;14.15;;;12.52;;
11524;SDS011;5819;49.648;8.330;2023-05-15T10:56:12;14.80;;;13.27;;
11524;SDS011;5819;49.648;8.330;2023-05-15T10:58:45;18.13;;;13.50;;
11524;SDS011;5819;49.648;8.330;2023-05-15T11:01:24;13.75;;;12.30;;
11524;SDS011;5819;49.648;8.330;2023-05-15T11:04:08;15.18;;;13.30;;
11524;SDS011;5819;49.648;8.330;2023-05-15T11:06:39;14.07;;;12.57;;
11524;SDS011;5819;49.648;8.330;2023-05-15T11:12:02;15.40;;;13.80;;
11524;SDS011;5819;49.648;8.330;2023-05-15T11:14:31;15.05;;;13.45;;
11524;SDS011;5819;49.648;8.330;2023-05-15T11:17:03;18.08;;;14.20;;
11524;SDS011;5819;49.648;8.330;2023-05-15T11:19:53;19.08;;;15.02;;
11524;SDS011;5819;49.648;8.330;2023-05-15T11:22:30;15.05;;;12.32;;
11524;SDS011;5819;49.648;8.330;2023-05-15T11:24:59;14.50;;;13.10;;
11524;SDS011;5819;49.648;8.330;2023-05-15T11:27:30;15.45;;;13.85;;
11524;SDS011;5819;49.648;8.330;2023-05-15T11:30:06;17.73;;;12.35;;
11524;SDS011;5819;49.648;8.330;2023-05-15T11:32:50;11.20;;;10.20;;
11524;SDS011;5819;49.648;8.330;2023-05-15T11:35:23;16.25;;;12.85;;
11524;SDS011;5819;49.648;8.330;2023-05-15T11:37:54;13.30;;;11.77;;
11524;SDS011;5819;49.648;8.330;2023-05-15T11:40:24;13.65;;;12.32;;
11524;SDS011;5819;49.648;8.330;2023-05-15T11:42:57;11.70;;;9.38;;
11524;SDS011;5819;49.648;8.330;2023-05-15T11:45:31;12.40;;;8.45;;
11524;SDS011;5819;49.648;8.330;2023-05-15T11:48:02;9.77;;;8.77;;
11524;SDS011;5819;49.648;8.330;2023-05-15T11:50:33;7.70;;;6.93;;
11524;SDS011;5819;49.648;8.330;2023-05-15T11:53:02;9.32;;;8.30;;
11524;SDS011;5819;49.648;8.330;2023-05-15T11:55:31;9.13;;;8.15;;
11524;SDS011;5819;49.648;8.330;2023-05-15T11:58:01;10.20;;;7.63;;
11524;SDS011;5819;49.648;8.330;2023-05-15T12:00:30;8.70;;;7.60;;
11524;SDS011;5819;49.648;8.330;2023-05-15T12:02:58;11.73;;;10.00;;
11524;SDS011;5819;49.648;8.330;2023-05-15T12:05:27;9.70;;;8.25;;
11524;SDS011;5819;49.648;8.330;2023-05-15T12:07:57;10.73;;;9.13;;
11524;SDS011;5819;49.648;8.330;2023-05-15T12:10:25;9.85;;;8.80;;
11524;SDS011;5819;49.648;8.330;2023-05-15T12:12:53;13.93;;;11.70;;
11524;SDS011;5819;49.648;8.330;2023-05-15T12:15:21;12.82;;;11.50;;
11524;SDS011;5819;49.648;8.330;2023-05-15T12:17:48;9.55;;;7.85;;
11524;SDS011;5819;49.648;8.330;2023-05-15T12:20:17;9.68;;;8.50;;
11524;SDS011;5819;49.648;8.330;2023-05-15T12:22:47;11.35;;;10.07;;
11524;SDS011;5819;49.648;8.330;2023-05-15T12:25:14;11.27;;;9.40;;
11524;SDS011;5819;49.648;8.330;2023-05-15T12:27:43;10.50;;;8.20;;
11524;SDS011;5819;49.648;8.330;2023-05-15T12:30:12;9.30;;;7.25;;
11524;SDS011;5819;49.648;8.330;2023-05-15T12:32:40;8.00;;;7.05;;
11524;SDS011;5819;49.648;8.330;2023-05-15T12:35:09;8.45;;;7.63;;
11524;SDS011;5819;49.648;8.330;2023-05-15T12:37:38;7.78;;;7.00;;
11524;SDS011;5819;49.648;8.330;2023-05-15T12:40:08;7.65;;;5.70;;
11524;SDS011;5819;49.648;8.330;2023-05-15T12:42:41;9.60;;;7.80;;
11524;SDS011;5819;49.648;8.330;2023-05-15T12:45:12;9.18;;;7.20;;
11524;SDS011;5819;49.648;8.330;2023-05-15T12:47:42;7.65;;;6.95;;
11524;SDS011;5819;49.648;8.330;2023-05-15T12:50:14;8.32;;;6.13;;
11524;SDS011;5819;49.648;8.330;2023-05-15T12:52:49;7.97;;;5.90;;
11524;SDS011;5819;49.648;8.330;2023-05-15T12:55:21;6.53;;;5.35;;
11524;SDS011;5819;49.648;8.330;2023-05-15T12:57:50;6.50;;;4.88;;
11524;SDS011;5819;49.648;8.330;2023-05-15T13:00:18;5.43;;;3.92;;
11524;SDS011;5819;49.648;8.330;2023-05-15T13:02:49;6.05;;;5.45;;
11524;SDS011;5819;49.648;8.330;2023-05-15T13:05:17;6.47;;;5.50;;
11524;SDS011;5819;49.648;8.330;2023-05-15T13:07:45;6.57;;;5.97;;
11524;SDS011;5819;49.648;8.330;2023-05-15T13:10:14;9.68;;;6.85;;
11524;SDS011;5819;49.648;8.330;2023-05-15T13:12:44;7.78;;;6.85;;
11524;SDS011;5819;49.648;8.330;2023-05-15T13:15:23;8.63;;;6.65;;
11524;SDS011;5819;49.648;8.330;2023-05-15T13:17:57;7.78;;;6.97;;
11524;SDS011;5819;49.648;8.330;2023-05-15T13:20:26;6.90;;;6.20;;
11524;SDS011;5819;49.648;8.330;2023-05-15T13:22:55;7.28;;;6.57;;
11524;SDS011;5819;49.648;8.330;2023-05-15T13:25:23;6.93;;;6.22;;
11524;SDS011;5819;49.648;8.330;2023-05-15T13:27:53;7.03;;;6.43;;
11524;SDS011;5819;49.648;8.330;2023-05-15T13:30:25;8.88;;;6.97;;
11524;SDS011;5819;49.648;8.330;2023-05-15T13:32:54;8.63;;;6.95;;
11524;SDS011;5819;49.648;8.330;2023-05-15T13:35:22;7.68;;;6.20;;
11524;SDS011;5819;49.648;8.330;2023-05-15T13:37:50;7.28;;;5.97;;
11524;SDS011;5819;49.648;8.330;2023-05-15T13:40:18;7.50;;;6.45;;
11524;SDS011;5819;49.648;8.330;2023-05-15T13:42:46;6.90;;;6.15;;
11524;SDS011;5819;49.648;8.330;2023-05-15T13:45:15;7.03;;;6.32;;
11524;SDS011;5819;49.648;8.330;2023-05-15T13:47:43;6.40;;;5.78;;
11524;SDS011;5819;49.648;8.330;2023-05-15T13:50:11;8.25;;;6.88;;
11524;SDS011;5819;49.648;8.330;2023-05-15T13:52:41;7.28;;;6.10;;
11524;SDS011;5819;49.648;8.330;2023-05-15T13:55:10;8.85;;;6.15;;
11524;SDS011;5819;49.648;8.330;2023-05-15T13:57:38;6.95;;;5.40;;
11524;SDS011;5819;49.648;8.330;2023-05-15T14:00:08;8.75;;;5.03;;
11524;SDS011;5819;49.648;8.330;2023-05-15T14:02:40;7.22;;;5.10;;
11524;SDS011;5819;49.648;8.330;2023-05-15T14:05:09;5.55;;;4.68;;
11524;SDS011;5819;49.648;8.330;2023-05-15T14:07:39;6.35;;;5.22;;
11524;SDS011;5819;49.648;8.330;2023-05-15T14:10:08;8.05;;;4.72;;
11524;SDS011;5819;49.648;8.330;2023-05-15T14:12:36;5.53;;;4.93;;
11524;SDS011;5819;49.648;8.330;2023-05-15T14:15:05;8.18;;;5.65;;
11524;SDS011;5819;49.648;8.330;2023-05-15T14:17:33;6.47;;;5.88;;
11524;SDS011;5819;49.648;8.330;2023-05-15T14:20:03;8.30;;;6.15;;
11524;SDS011;5819;49.648;8.330;2023-05-15T14:22:31;6.57;;;5.10;;
11524;SDS011;5819;49.648;8.330;2023-05-15T14:24:59;7.25;;;4.95;;
11524;SDS011;5819;49.648;8.330;2023-05-15T14:27:27;5.45;;;4.93;;
11524;SDS011;5819;49.648;8.330;2023-05-15T14:29:55;6.07;;;4.72;;
11524;SDS011;5819;49.648;8.330;2023-05-15T14:32:22;9.05;;;4.88;;
11524;SDS011;5819;49.648;8.330;2023-05-15T14:34:50;5.45;;;4.88;;
11524;SDS011;5819;49.648;8.330;2023-05-15T14:37:19;5.13;;;4.45;;
11524;SDS011;5819;49.648;8.330;2023-05-15T14:39:48;6.80;;;4.82;;
11524;SDS011;5819;49.648;8.330;2023-05-15T14:42:16;7.05;;;5.35;;
11524;SDS011;5819;49.648;8.330;2023-05-15T14:44:45;7.70;;;6.97;;
11524;SDS011;5819;49.648;8.330;2023-05-15T14:47:13;8.07;;;7.15;;
11524;SDS011;5819;49.648;8.330;2023-05-15T14:49:42;8.75;;;7.22;;
11524;SDS011;5819;49.648;8.330;2023-05-15T14:52:10;10.40;;;7.97;;
11524;SDS011;5819;49.648;8.330;2023-05-15T14:54:39;9.18;;;7.72;;
11524;SDS011;5819;49.648;8.330;2023-05-15T14:57:06;8.65;;;7.70;;
11524;SDS011;5819;49.648;8.330;2023-05-15T14:59:34;11.25;;;8.00;;
11524;SDS011;5819;49.648;8.330;2023-05-15T15:02:02;10.75;;;7.95;;
11524;SDS011;5819;49.648;8.330;2023-05-15T15:04:30;10.15;;;9.05;;
11524;SDS011;5819;49.648;8.330;2023-05-15T15:07:01;13.55;;;8.77;;
11524;SDS011;5819;49.648;8.330;2023-05-15T15:09:30;12.13;;;8.90;;
11524;SDS011;5819;49.648;8.330;2023-05-15T15:11:59;9.73;;;8.73;;
11524;SDS011;5819;49.648;8.330;2023-05-15T15:14:27;10.60;;;8.85;;